createdAt,value
2022-11-02T00:00:08.757Z,78
2022-11-02T00:00:41.619Z,78
2022-11-02T00:01:12.931Z,78
2022-11-02T00:01:35.071Z,78
2022-11-02T00:01:57.831Z,78
2022-11-02T00:02:32.499Z,78
2022-11-02T00:03:05.024Z,78
2022-11-02T00:03:36.484Z,78
2022-11-02T00:04:08.918Z,78
2022-11-02T00:04:41.041Z,78
2022-11-02T00:05:12.884Z,78
2022-11-02T00:05:35.547Z,78
2022-11-02T00:05:58.922Z,77
2022-11-02T00:06:32.882Z,78
2022-11-02T00:07:04.578Z,77
2022-11-02T00:07:36.521Z,77
2022-11-02T00:08:08.742Z,77
2022-11-02T00:08:40.470Z,77
2022-11-02T00:09:12.517Z,77
2022-11-02T00:09:35.302Z,77
2022-11-02T00:09:57.816Z,78
2022-11-02T00:10:32.541Z,78
2022-11-02T00:11:04.988Z,78
2022-11-02T00:11:36.343Z,78
2022-11-02T00:12:09.391Z,78
2022-11-02T00:12:40.382Z,77
2022-11-02T00:13:12.577Z,77
2022-11-02T00:13:35.331Z,77
2022-11-02T00:13:57.537Z,77
2022-11-02T00:14:33.853Z,77
2022-11-02T00:15:04.693Z,77
2022-11-02T00:15:36.862Z,77
2022-11-02T00:16:08.519Z,77
2022-11-02T00:16:41.149Z,77
2022-11-02T00:17:12.499Z,77
2022-11-02T00:17:35.134Z,77
2022-11-02T00:17:58.089Z,78
2022-11-02T00:18:32.695Z,78
2022-11-02T00:19:04.724Z,77
2022-11-02T00:19:36.456Z,77
2022-11-02T00:20:14.985Z,77
2022-11-02T00:20:40.863Z,78
2022-11-02T00:21:13.185Z,78
2022-11-02T00:21:36.204Z,78
2022-11-02T00:21:58.312Z,78
2022-11-02T00:22:32.878Z,78
2022-11-02T00:23:04.769Z,78
2022-11-02T00:23:36.617Z,78
2022-11-02T00:24:08.292Z,78
2022-11-02T00:24:40.629Z,78
2022-11-02T00:25:12.352Z,78
2022-11-02T00:25:35.323Z,78
2022-11-02T00:26:00.608Z,78
2022-11-02T00:26:32.398Z,78
2022-11-02T00:27:04.352Z,78
2022-11-02T00:27:36.389Z,78
2022-11-02T00:28:08.534Z,78
2022-11-02T00:28:40.325Z,78
2022-11-02T00:29:12.608Z,78
2022-11-02T00:29:35.512Z,78
2022-11-02T00:29:58.201Z,78
2022-11-02T00:30:32.356Z,78
2022-11-02T00:31:04.317Z,78
2022-11-02T00:31:36.437Z,78
2022-11-02T00:32:08.539Z,78
2022-11-02T00:32:40.286Z,78
2022-11-02T00:33:12.396Z,78
2022-11-02T00:33:35.074Z,78
2022-11-02T00:33:57.730Z,78
2022-11-02T00:34:32.479Z,78
2022-11-02T00:35:04.322Z,78
2022-11-02T00:35:36.464Z,78
2022-11-02T00:36:08.346Z,78
2022-11-02T00:36:40.256Z,78
2022-11-02T00:37:12.252Z,78
2022-11-02T00:37:35.288Z,78
2022-11-02T00:37:57.635Z,78
2022-11-02T00:38:32.437Z,78
2022-11-02T00:39:04.631Z,78
2022-11-02T00:39:36.408Z,78
2022-11-02T00:40:08.292Z,78
2022-11-02T00:40:40.374Z,78
2022-11-02T00:41:12.468Z,78
2022-11-02T00:41:35.566Z,78
2022-11-02T00:41:57.882Z,78
2022-11-02T00:42:32.322Z,78
2022-11-02T00:43:04.457Z,78
2022-11-02T00:43:36.352Z,78
2022-11-02T00:44:08.333Z,78
2022-11-02T00:44:40.359Z,78
2022-11-02T00:45:12.496Z,78
2022-11-02T00:45:36.204Z,78
2022-11-02T00:45:58.650Z,78
2022-11-02T00:46:32.286Z,78
2022-11-02T00:47:04.481Z,78
2022-11-02T00:47:36.612Z,78
2022-11-02T00:48:08.444Z,78
2022-11-02T00:48:40.427Z,78
2022-11-02T00:49:12.294Z,78
2022-11-02T00:49:35.249Z,78
2022-11-02T00:49:57.377Z,78
2022-11-02T00:50:32.353Z,78
2022-11-02T00:51:04.495Z,78
2022-11-02T00:51:36.742Z,78
2022-11-02T00:52:08.548Z,78
2022-11-02T00:52:40.458Z,78
2022-11-02T00:53:12.346Z,78
2022-11-02T00:53:36.199Z,78
2022-11-02T00:53:58.505Z,78
2022-11-02T00:54:32.411Z,79
2022-11-02T00:55:04.752Z,79
2022-11-02T00:55:36.458Z,79
2022-11-02T00:56:08.523Z,79
2022-11-02T00:56:40.642Z,79
2022-11-02T00:57:12.870Z,78
2022-11-02T00:57:35.606Z,78
2022-11-02T00:57:57.354Z,78
2022-11-02T00:58:32.280Z,78
2022-11-02T00:59:04.698Z,78
2022-11-02T00:59:36.268Z,78
2022-11-02T01:00:08.622Z,79
2022-11-02T01:00:40.209Z,79
2022-11-02T01:01:12.718Z,79
2022-11-02T01:01:35.923Z,79
2022-11-02T01:01:58.363Z,79
2022-11-02T01:02:32.487Z,79
2022-11-02T01:03:04.288Z,79
2022-11-02T01:03:36.431Z,79
2022-11-02T01:04:08.306Z,78
2022-11-02T01:04:40.226Z,78
2022-11-02T01:05:12.289Z,78
2022-11-02T01:05:35.102Z,78
2022-11-02T01:05:57.438Z,78
2022-11-02T01:06:32.934Z,77
2022-11-02T01:07:04.339Z,77
2022-11-02T01:07:36.397Z,77
2022-11-02T01:08:08.877Z,77
2022-11-02T01:08:40.272Z,77
2022-11-02T01:09:12.237Z,77
2022-11-02T01:09:35.406Z,77
2022-11-02T01:09:57.788Z,77
2022-11-02T01:10:32.455Z,76
2022-11-02T01:11:04.355Z,76
2022-11-02T01:11:36.350Z,76
2022-11-02T01:12:08.539Z,76
2022-11-02T01:12:40.390Z,76
2022-11-02T01:13:12.244Z,76
2022-11-02T01:13:34.891Z,76
2022-11-02T01:13:57.238Z,76
2022-11-02T01:14:32.486Z,76
2022-11-02T01:15:04.476Z,76
2022-11-02T01:15:36.487Z,76
2022-11-02T01:16:08.370Z,76
2022-11-02T01:16:40.393Z,76
2022-11-02T01:17:12.365Z,76
2022-11-02T01:17:35.762Z,76
2022-11-02T01:17:58.092Z,76
2022-11-02T01:18:32.636Z,76
2022-11-02T01:19:04.447Z,76
2022-11-02T01:19:36.575Z,76
2022-11-02T01:20:08.608Z,77
2022-11-02T01:20:40.484Z,77
2022-11-02T01:21:12.403Z,77
2022-11-02T01:21:35.304Z,77
2022-11-02T01:21:57.408Z,77
2022-11-02T01:22:32.296Z,77
2022-11-02T01:23:04.302Z,76
2022-11-02T01:23:36.419Z,76
2022-11-02T01:24:08.393Z,76
2022-11-02T01:24:40.251Z,76
2022-11-02T01:25:12.198Z,76
2022-11-02T01:25:35.437Z,76
2022-11-02T01:25:57.614Z,76
2022-11-02T01:26:32.404Z,77
2022-11-02T01:27:04.963Z,77
2022-11-02T01:27:36.538Z,77
2022-11-02T01:28:08.195Z,76
2022-11-02T01:28:40.308Z,77
2022-11-02T01:29:12.350Z,76
2022-11-02T01:29:35.073Z,77
2022-11-02T01:29:57.440Z,77
2022-11-02T01:30:34.791Z,77
2022-11-02T01:31:04.442Z,77
2022-11-02T01:31:36.206Z,78
2022-11-02T01:32:08.379Z,78
2022-11-02T01:32:40.171Z,78
2022-11-02T01:33:12.376Z,79
2022-11-02T01:33:35.707Z,79
2022-11-02T01:33:58.285Z,80
2022-11-02T01:34:32.389Z,80
2022-11-02T01:35:04.449Z,80
2022-11-02T01:35:36.643Z,80
2022-11-02T01:36:08.533Z,80
2022-11-02T01:36:40.214Z,81
2022-11-02T01:37:12.372Z,81
2022-11-02T01:37:35.160Z,81
2022-11-02T01:37:57.473Z,80
2022-11-02T01:38:32.350Z,80
2022-11-02T01:39:04.234Z,81
2022-11-02T01:39:36.462Z,81
2022-11-02T01:40:08.334Z,81
2022-11-02T01:40:40.284Z,81
2022-11-02T01:41:12.182Z,81
2022-11-02T01:41:35.428Z,81
2022-11-02T01:41:57.822Z,81
2022-11-02T01:42:32.364Z,81
2022-11-02T01:43:04.740Z,81
2022-11-02T01:43:36.520Z,81
2022-11-02T01:44:08.479Z,81
2022-11-02T01:44:40.364Z,81
2022-11-02T01:45:12.477Z,81
2022-11-02T01:45:35.137Z,81
2022-11-02T01:45:57.411Z,81
2022-11-02T01:46:32.411Z,81
2022-11-02T01:47:04.620Z,82
2022-11-02T01:47:36.405Z,82
2022-11-02T01:48:09.956Z,82
2022-11-02T01:48:40.298Z,82
2022-11-02T01:49:12.404Z,82
2022-11-02T01:49:35.282Z,82
2022-11-02T01:49:57.513Z,81
2022-11-02T01:50:32.594Z,81
2022-11-02T01:51:04.475Z,81
2022-11-02T01:51:36.309Z,81
2022-11-02T01:52:08.283Z,81
2022-11-02T01:52:37.619Z,81
2022-11-02T01:53:12.373Z,81
2022-11-02T01:53:35.592Z,81
2022-11-02T01:53:57.840Z,81
2022-11-02T01:54:32.376Z,81
2022-11-02T01:55:04.377Z,81
2022-11-02T01:55:36.745Z,81
2022-11-02T01:56:08.334Z,81
2022-11-02T01:56:40.609Z,81
2022-11-02T01:57:12.273Z,81
2022-11-02T01:57:36.228Z,81
2022-11-02T01:57:58.572Z,82
2022-11-02T01:58:32.291Z,82
2022-11-02T01:59:04.452Z,82
2022-11-02T01:59:36.299Z,82
2022-11-02T02:00:08.571Z,82
2022-11-02T02:00:40.570Z,82
2022-11-02T02:01:12.988Z,82
2022-11-02T02:01:35.715Z,83
2022-11-02T02:01:58.045Z,83
2022-11-02T02:02:32.659Z,83
2022-11-02T02:03:04.172Z,83
2022-11-02T02:03:36.232Z,82
2022-11-02T02:04:08.378Z,82
2022-11-02T02:04:40.204Z,82
2022-11-02T02:05:12.473Z,82
2022-11-02T02:05:35.033Z,82
2022-11-02T02:05:57.502Z,82
2022-11-02T02:06:32.416Z,82
2022-11-02T02:07:04.334Z,82
2022-11-02T02:07:37.812Z,82
2022-11-02T02:08:08.219Z,83
2022-11-02T02:08:40.307Z,83
2022-11-02T02:09:12.296Z,83
2022-11-02T02:09:35.294Z,83
2022-11-02T02:09:57.706Z,83
2022-11-02T02:10:32.187Z,83
2022-11-02T02:11:04.230Z,83
2022-11-02T02:11:36.349Z,82
2022-11-02T02:12:08.261Z,82
2022-11-02T02:12:40.265Z,82
2022-11-02T02:13:12.251Z,82
2022-11-02T02:13:35.020Z,82
2022-11-02T02:13:57.310Z,82
2022-11-02T02:14:32.491Z,82
2022-11-02T02:15:04.328Z,82
2022-11-02T02:15:36.396Z,82
2022-11-02T02:16:08.488Z,82
2022-11-02T02:16:40.420Z,82
2022-11-02T02:17:12.340Z,82
2022-11-02T02:17:35.012Z,82
2022-11-02T02:17:58.958Z,82
2022-11-02T02:18:32.242Z,82
2022-11-02T02:19:04.358Z,82
2022-11-02T02:19:37.848Z,82
2022-11-02T02:20:08.319Z,82
2022-11-02T02:20:40.264Z,82
2022-11-02T02:21:12.398Z,82
2022-11-02T02:21:37.314Z,82
2022-11-02T02:21:59.444Z,82
2022-11-02T02:22:32.310Z,82
2022-11-02T02:23:04.302Z,82
2022-11-02T02:23:36.430Z,82
2022-11-02T02:24:08.309Z,81
2022-11-02T02:24:40.350Z,81
2022-11-02T02:25:12.188Z,81
2022-11-02T02:25:34.877Z,81
2022-11-02T02:25:57.218Z,81
2022-11-02T02:26:32.313Z,81
2022-11-02T02:27:04.220Z,81
2022-11-02T02:27:36.358Z,81
2022-11-02T02:28:08.254Z,81
2022-11-02T02:28:40.602Z,81
2022-11-02T02:29:12.397Z,81
2022-11-02T02:29:35.945Z,81
2022-11-02T02:29:58.165Z,81
2022-11-02T02:30:32.424Z,81
2022-11-02T02:31:04.316Z,81
2022-11-02T02:31:36.481Z,81
2022-11-02T02:32:08.256Z,80
2022-11-02T02:32:40.217Z,80
2022-11-02T02:33:12.194Z,80
2022-11-02T02:33:35.125Z,80
2022-11-02T02:33:57.596Z,80
2022-11-02T02:34:32.199Z,80
2022-11-02T02:35:04.605Z,80
2022-11-02T02:35:36.441Z,80
2022-11-02T02:36:08.638Z,80
2022-11-02T02:36:40.245Z,80
2022-11-02T02:37:12.605Z,80
2022-11-02T02:37:36.120Z,80
2022-11-02T02:37:58.541Z,79
2022-11-02T02:38:32.310Z,79
2022-11-02T02:39:04.342Z,79
2022-11-02T02:39:36.386Z,79
2022-11-02T02:40:08.332Z,80
2022-11-02T02:40:40.382Z,80
2022-11-02T02:41:12.347Z,80
2022-11-02T02:41:35.648Z,80
2022-11-02T02:41:57.841Z,80
2022-11-02T02:42:32.192Z,80
2022-11-02T02:43:04.330Z,80
2022-11-02T02:43:36.306Z,80
2022-11-02T02:44:08.463Z,80
2022-11-02T02:44:40.213Z,80
2022-11-02T02:45:12.840Z,80
2022-11-02T02:45:35.340Z,80
2022-11-02T02:45:58.177Z,80
2022-11-02T02:46:34.563Z,80
2022-11-02T02:47:04.203Z,80
2022-11-02T02:47:36.250Z,80
2022-11-02T02:48:08.613Z,80
2022-11-02T02:48:40.184Z,80
2022-11-02T02:49:12.532Z,80
2022-11-02T02:49:40.472Z,80
2022-11-02T02:49:57.354Z,80
2022-11-02T02:50:32.204Z,79
2022-11-02T02:51:04.366Z,79
2022-11-02T02:51:36.245Z,79
2022-11-02T02:52:08.311Z,79
2022-11-02T02:52:37.810Z,79
2022-11-02T02:53:12.513Z,79
2022-11-02T02:53:35.363Z,79
2022-11-02T02:53:57.947Z,79
2022-11-02T02:54:32.351Z,80
2022-11-02T02:55:04.778Z,80
2022-11-02T02:55:36.196Z,80
2022-11-02T02:56:08.181Z,80
2022-11-02T02:56:40.758Z,79
2022-11-02T02:57:12.194Z,79
2022-11-02T02:57:35.676Z,79
2022-11-02T02:57:57.613Z,79
2022-11-02T02:58:32.311Z,79
2022-11-02T02:59:05.790Z,79
2022-11-02T02:59:37.843Z,79
2022-11-02T03:00:08.511Z,79
2022-11-02T03:00:40.793Z,79
2022-11-02T03:01:16.894Z,79
2022-11-02T03:01:37.114Z,79
2022-11-02T03:01:59.416Z,79
2022-11-02T03:02:32.335Z,79
2022-11-02T03:03:04.500Z,79
2022-11-02T03:03:36.258Z,79
2022-11-02T03:04:08.134Z,79
2022-11-02T03:04:40.177Z,79
2022-11-02T03:05:12.283Z,79
2022-11-02T03:05:36.328Z,79
2022-11-02T03:05:58.596Z,79
2022-11-02T03:06:32.211Z,79
2022-11-02T03:07:05.716Z,79
2022-11-02T03:07:36.281Z,79
2022-11-02T03:08:09.765Z,79
2022-11-02T03:08:41.639Z,79
2022-11-02T03:09:12.308Z,79
2022-11-02T03:09:35.506Z,79
2022-11-02T03:09:57.842Z,79
2022-11-02T03:10:32.294Z,80
2022-11-02T03:11:04.716Z,80
2022-11-02T03:11:36.384Z,80
2022-11-02T03:12:08.600Z,80
2022-11-02T03:12:40.175Z,79
2022-11-02T03:13:12.355Z,79
2022-11-02T03:13:35.119Z,79
2022-11-02T03:13:57.562Z,79
2022-11-02T03:14:32.391Z,80
2022-11-02T03:15:04.312Z,80
2022-11-02T03:15:36.493Z,79
2022-11-02T03:16:08.334Z,79
2022-11-02T03:16:40.560Z,79
2022-11-02T03:17:12.231Z,79
2022-11-02T03:17:35.071Z,79
2022-11-02T03:17:57.368Z,79
2022-11-02T03:18:32.465Z,79
2022-11-02T03:19:04.229Z,79
2022-11-02T03:19:36.548Z,79
2022-11-02T03:20:08.258Z,79
2022-11-02T03:20:40.523Z,79
2022-11-02T03:21:12.101Z,79
2022-11-02T03:21:40.107Z,79
2022-11-02T03:22:16.683Z,79
2022-11-02T03:22:40.681Z,79
2022-11-02T03:23:01.490Z,79
2022-11-02T03:23:36.870Z,79
2022-11-02T03:24:08.303Z,79
2022-11-02T03:24:42.743Z,79
2022-11-02T03:25:12.404Z,79
2022-11-02T03:25:34.927Z,79
2022-11-02T03:25:58.193Z,80
2022-11-02T03:26:32.289Z,80
2022-11-02T03:27:08.196Z,80
2022-11-02T03:27:30.670Z,80
2022-11-02T03:28:08.412Z,80
2022-11-02T03:28:40.295Z,80
2022-11-02T03:29:12.356Z,79
2022-11-02T03:29:35.160Z,79
2022-11-02T03:29:57.654Z,79
2022-11-02T03:30:32.385Z,80
2022-11-02T03:31:04.175Z,79
2022-11-02T03:31:32.002Z,79
2022-11-02T03:32:09.096Z,79
2022-11-02T03:32:42.814Z,79
2022-11-02T03:33:12.380Z,79
2022-11-02T03:33:36.558Z,79
2022-11-02T03:33:57.863Z,79
2022-11-02T03:34:33.033Z,79
2022-11-02T03:35:04.298Z,79
2022-11-02T03:35:36.237Z,80
2022-11-02T03:36:08.314Z,80
2022-11-02T03:36:40.408Z,80
2022-11-02T03:37:12.443Z,80
2022-11-02T03:37:35.055Z,80
2022-11-02T03:37:58.985Z,80
2022-11-02T03:38:32.471Z,80
2022-11-02T03:39:04.368Z,80
2022-11-02T03:39:37.016Z,80
2022-11-02T03:40:09.643Z,80
2022-11-02T03:40:40.354Z,80
2022-11-02T03:41:12.420Z,79
2022-11-02T03:41:34.869Z,79
2022-11-02T03:41:57.750Z,79
2022-11-02T03:42:32.541Z,80
2022-11-02T03:43:07.748Z,80
2022-11-02T03:43:36.345Z,80
2022-11-02T03:44:08.645Z,80
2022-11-02T03:44:40.285Z,80
2022-11-02T03:45:12.261Z,79
2022-11-02T03:45:34.943Z,79
2022-11-02T03:45:59.720Z,79
2022-11-02T03:46:32.559Z,79
2022-11-02T03:47:04.684Z,79
2022-11-02T03:47:36.266Z,79
2022-11-02T03:48:08.453Z,79
2022-11-02T03:48:40.948Z,79
2022-11-02T03:49:12.516Z,79
2022-11-02T03:49:40.610Z,79
2022-11-02T03:49:57.846Z,79
2022-11-02T03:50:32.825Z,79
2022-11-02T03:51:05.475Z,80
2022-11-02T03:51:37.110Z,79
2022-11-02T03:52:08.229Z,79
2022-11-02T03:52:38.124Z,80
2022-11-02T03:53:12.249Z,80
2022-11-02T03:53:35.042Z,79
2022-11-02T03:53:57.706Z,79
2022-11-02T03:54:32.112Z,79
2022-11-02T03:55:04.789Z,80
2022-11-02T03:55:36.802Z,80
2022-11-02T03:56:08.348Z,80
2022-11-02T03:56:40.766Z,80
2022-11-02T03:57:13.576Z,80
2022-11-02T03:57:36.462Z,80
2022-11-02T03:57:58.665Z,80
2022-11-02T03:58:32.955Z,80
2022-11-02T03:59:05.616Z,80
2022-11-02T03:59:37.050Z,80
2022-11-02T04:00:08.389Z,80
2022-11-02T04:00:40.848Z,80
2022-11-02T04:01:14.955Z,80
2022-11-02T04:01:35.357Z,80
2022-11-02T04:01:57.796Z,80
2022-11-02T04:02:32.609Z,79
2022-11-02T04:03:04.280Z,79
2022-11-02T04:03:36.296Z,79
2022-11-02T04:04:08.295Z,80
2022-11-02T04:04:40.227Z,80
2022-11-02T04:05:12.825Z,80
2022-11-02T04:05:35.153Z,80
2022-11-02T04:05:57.792Z,80
2022-11-02T04:06:32.215Z,80
2022-11-02T04:07:04.668Z,80
2022-11-02T04:07:36.414Z,80
2022-11-02T04:08:08.420Z,80
2022-11-02T04:08:41.683Z,80
2022-11-02T04:09:12.564Z,79
2022-11-02T04:09:36.642Z,80
2022-11-02T04:09:59.060Z,79
2022-11-02T04:10:32.414Z,79
2022-11-02T04:11:06.487Z,79
2022-11-02T04:11:36.165Z,80
2022-11-02T04:12:10.590Z,79
2022-11-02T04:12:40.560Z,80
2022-11-02T04:13:12.919Z,80
2022-11-02T04:13:35.624Z,80
2022-11-02T04:13:58.624Z,80
2022-11-02T04:14:33.100Z,80
2022-11-02T04:15:05.953Z,80
2022-11-02T04:15:39.252Z,80
2022-11-02T04:16:08.664Z,80
2022-11-02T04:16:40.861Z,80
2022-11-02T04:17:12.095Z,80
2022-11-02T04:17:34.904Z,80
2022-11-02T04:17:57.647Z,80
2022-11-02T04:18:32.270Z,80
2022-11-02T04:19:04.802Z,80
2022-11-02T04:19:36.347Z,80
2022-11-02T04:20:09.094Z,80
2022-11-02T04:20:40.234Z,80
2022-11-02T04:21:12.346Z,80
2022-11-02T04:21:35.042Z,80
2022-11-02T04:21:57.388Z,79
2022-11-02T04:22:32.541Z,79
2022-11-02T04:23:04.167Z,79
2022-11-02T04:23:37.801Z,79
2022-11-02T04:24:08.581Z,79
2022-11-02T04:24:40.204Z,79
2022-11-02T04:25:12.067Z,80
2022-11-02T04:25:34.783Z,80
2022-11-02T04:25:57.411Z,80
2022-11-02T04:26:32.218Z,80
2022-11-02T04:27:04.987Z,80
2022-11-02T04:27:37.013Z,80
2022-11-02T04:28:08.181Z,80
2022-11-02T04:28:40.136Z,80
2022-11-02T04:29:12.254Z,80
2022-11-02T04:29:34.851Z,80
2022-11-02T04:29:57.260Z,80
2022-11-02T04:30:33.840Z,80
2022-11-02T04:31:04.824Z,80
2022-11-02T04:31:36.561Z,80
2022-11-02T04:32:08.687Z,80
2022-11-02T04:32:40.407Z,80
2022-11-02T04:33:13.751Z,80
2022-11-02T04:33:34.938Z,79
2022-11-02T04:33:58.205Z,79
2022-11-02T04:34:32.275Z,79
2022-11-02T04:35:04.930Z,80
2022-11-02T04:35:36.741Z,79
2022-11-02T04:36:09.051Z,80
2022-11-02T04:36:40.475Z,80
2022-11-02T04:37:12.166Z,80
2022-11-02T04:37:35.048Z,80
2022-11-02T04:37:58.050Z,80
2022-11-02T04:38:32.744Z,80
2022-11-02T04:39:07.909Z,80
2022-11-02T04:39:30.038Z,80
2022-11-02T04:40:08.723Z,80
2022-11-02T04:40:40.554Z,80
2022-11-02T04:41:12.623Z,80
2022-11-02T04:41:35.328Z,80
2022-11-02T04:41:57.595Z,80
2022-11-02T04:42:32.137Z,80
2022-11-02T04:43:04.400Z,80
2022-11-02T04:43:36.130Z,80
2022-11-02T04:44:08.296Z,80
2022-11-02T04:44:40.179Z,80
2022-11-02T04:45:12.322Z,80
2022-11-02T04:45:35.645Z,80
2022-11-02T04:45:59.456Z,80
2022-11-02T04:46:32.147Z,80
2022-11-02T04:47:04.158Z,80
2022-11-02T04:47:36.133Z,80
2022-11-02T04:48:08.348Z,80
2022-11-02T04:48:40.185Z,80
2022-11-02T04:49:12.310Z,80
2022-11-02T04:49:35.209Z,80
2022-11-02T04:49:58.275Z,80
2022-11-02T04:50:32.255Z,80
2022-11-02T04:50:58.883Z,80
2022-11-02T04:51:36.613Z,80
2022-11-02T04:52:09.155Z,80
2022-11-02T04:52:41.142Z,80
2022-11-02T04:53:12.258Z,80
2022-11-02T04:53:34.938Z,80
2022-11-02T04:53:57.414Z,80
2022-11-02T04:54:32.206Z,80
2022-11-02T04:55:07.516Z,80
2022-11-02T04:55:36.668Z,80
2022-11-02T04:56:09.374Z,80
2022-11-02T04:56:40.296Z,80
2022-11-02T04:57:12.868Z,80
2022-11-02T04:57:35.720Z,80
2022-11-02T04:57:58.075Z,80
2022-11-02T04:58:32.737Z,80
2022-11-02T04:59:04.698Z,80
2022-11-02T04:59:36.940Z,80
2022-11-02T05:00:09.155Z,80
2022-11-02T05:00:40.426Z,80
2022-11-02T05:01:12.479Z,80
2022-11-02T05:01:35.170Z,80
2022-11-02T05:01:57.849Z,80
2022-11-02T05:02:33.042Z,80
2022-11-02T05:03:08.181Z,80
2022-11-02T05:03:36.213Z,80
2022-11-02T05:04:10.104Z,80
2022-11-02T05:04:41.763Z,80
2022-11-02T05:05:13.304Z,80
2022-11-02T05:05:36.163Z,80
2022-11-02T05:05:58.719Z,80
2022-11-02T05:06:32.748Z,80
2022-11-02T05:07:04.881Z,80
2022-11-02T05:07:36.695Z,80
2022-11-02T05:08:08.277Z,80
2022-11-02T05:08:40.224Z,80
2022-11-02T05:09:12.381Z,80
2022-11-02T05:09:35.066Z,80
2022-11-02T05:09:57.687Z,81
2022-11-02T05:10:32.194Z,81
2022-11-02T05:11:04.420Z,81
2022-11-02T05:11:37.714Z,81
2022-11-02T05:12:08.574Z,81
2022-11-02T05:12:40.525Z,81
2022-11-02T05:13:12.190Z,81
2022-11-02T05:13:34.896Z,81
2022-11-02T05:13:57.485Z,81
2022-11-02T05:14:33.097Z,81
2022-11-02T05:15:04.476Z,81
2022-11-02T05:15:36.713Z,81
2022-11-02T05:16:08.630Z,81
2022-11-02T05:16:40.420Z,81
2022-11-02T05:17:13.324Z,81
2022-11-02T05:17:36.010Z,81
2022-11-02T05:17:58.593Z,81
2022-11-02T05:18:32.313Z,81
2022-11-02T05:19:06.953Z,81
2022-11-02T05:19:36.520Z,81
2022-11-02T05:20:09.017Z,81
2022-11-02T05:20:40.307Z,81
2022-11-02T05:21:13.376Z,81
2022-11-02T05:21:36.113Z,81
2022-11-02T05:21:58.588Z,81
2022-11-02T05:22:32.242Z,81
2022-11-02T05:23:04.625Z,81
2022-11-02T05:23:37.009Z,81
2022-11-02T05:24:08.143Z,81
2022-11-02T05:24:40.670Z,81
2022-11-02T05:25:12.170Z,81
2022-11-02T05:25:34.998Z,81
2022-11-02T05:25:57.462Z,81
2022-11-02T05:26:32.238Z,81
2022-11-02T05:27:05.555Z,81
2022-11-02T05:27:36.371Z,81
2022-11-02T05:28:08.663Z,81
2022-11-02T05:28:40.089Z,81
2022-11-02T05:29:12.240Z,81
2022-11-02T05:29:35.051Z,81
2022-11-02T05:29:57.345Z,81
2022-11-02T05:30:32.591Z,81
2022-11-02T05:31:04.964Z,81
2022-11-02T05:31:36.184Z,81
2022-11-02T05:32:08.271Z,81
2022-11-02T05:32:40.211Z,81
2022-11-02T05:33:12.136Z,81
2022-11-02T05:33:34.881Z,81
2022-11-02T05:33:57.625Z,81
2022-11-02T05:34:32.563Z,81
2022-11-02T05:35:04.819Z,81
2022-11-02T05:35:36.366Z,81
2022-11-02T05:36:08.937Z,81
2022-11-02T05:36:40.222Z,81
2022-11-02T05:37:12.370Z,81
2022-11-02T05:37:34.973Z,81
2022-11-02T05:37:57.825Z,81
2022-11-02T05:38:33.302Z,81
2022-11-02T05:39:04.381Z,81
2022-11-02T05:39:37.348Z,81
2022-11-02T05:40:08.489Z,81
2022-11-02T05:40:40.509Z,81
2022-11-02T05:41:12.774Z,81
2022-11-02T05:41:35.821Z,81
2022-11-02T05:41:59.156Z,81
2022-11-02T05:42:37.741Z,81
2022-11-02T05:43:05.575Z,81
2022-11-02T05:43:36.299Z,81
2022-11-02T05:44:08.512Z,81
2022-11-02T05:44:40.102Z,81
2022-11-02T05:45:12.401Z,81
2022-11-02T05:45:35.075Z,81
2022-11-02T05:45:57.711Z,80
2022-11-02T05:46:32.938Z,80
2022-11-02T05:47:04.153Z,80
2022-11-02T05:47:36.630Z,80
2022-11-02T05:48:08.180Z,81
2022-11-02T05:48:40.265Z,81
2022-11-02T05:49:12.246Z,80
2022-11-02T05:49:34.882Z,80
2022-11-02T05:49:58.069Z,80
2022-11-02T05:50:33.922Z,80
2022-11-02T05:51:05.706Z,80
2022-11-02T05:51:37.110Z,80
2022-11-02T05:52:08.367Z,80
2022-11-02T05:52:40.136Z,80
2022-11-02T05:53:12.453Z,80
2022-11-02T05:53:35.129Z,80
2022-11-02T05:53:57.468Z,80
2022-11-02T05:54:33.638Z,80
2022-11-02T05:55:04.214Z,80
2022-11-02T05:55:36.337Z,81
2022-11-02T05:56:08.402Z,80
2022-11-02T05:56:41.304Z,80
2022-11-02T05:57:12.205Z,80
2022-11-02T05:57:36.427Z,80
2022-11-02T05:57:58.829Z,80
2022-11-02T05:58:32.222Z,80
2022-11-02T05:59:04.755Z,80
2022-11-02T05:59:36.259Z,80
2022-11-02T06:00:08.421Z,80
2022-11-02T06:00:40.151Z,80
2022-11-02T06:01:13.341Z,80
2022-11-02T06:01:35.930Z,79
2022-11-02T06:01:58.809Z,79
2022-11-02T06:02:33.053Z,79
2022-11-02T06:03:04.688Z,79
2022-11-02T06:03:36.381Z,79
2022-11-02T06:04:09.097Z,79
2022-11-02T06:04:40.775Z,79
2022-11-02T06:05:12.647Z,79
2022-11-02T06:05:35.350Z,79
2022-11-02T06:05:59.442Z,79
2022-11-02T06:06:32.473Z,79
2022-11-02T06:07:05.092Z,79
2022-11-02T06:07:36.197Z,79
2022-11-02T06:08:08.314Z,79
2022-11-02T06:08:40.217Z,79
2022-11-02T06:09:12.239Z,79
2022-11-02T06:09:35.111Z,79
2022-11-02T06:09:57.541Z,79
2022-11-02T06:10:33.247Z,79
2022-11-02T06:11:04.542Z,79
2022-11-02T06:11:36.756Z,79
2022-11-02T06:12:08.528Z,79
2022-11-02T06:12:40.577Z,79
2022-11-02T06:13:12.223Z,79
2022-11-02T06:13:34.835Z,79
2022-11-02T06:13:57.500Z,79
2022-11-02T06:14:32.273Z,79
2022-11-02T06:15:04.589Z,79
2022-11-02T06:15:36.827Z,79
2022-11-02T06:16:08.245Z,79
2022-11-02T06:16:40.112Z,79
2022-11-02T06:17:12.313Z,79
2022-11-02T06:17:35.046Z,79
2022-11-02T06:17:58.237Z,79
2022-11-02T06:18:32.918Z,79
2022-11-02T06:19:04.899Z,79
2022-11-02T06:19:36.445Z,79
2022-11-02T06:20:08.202Z,79
2022-11-02T06:20:40.567Z,79
2022-11-02T06:21:12.331Z,79
2022-11-02T06:21:34.996Z,79
2022-11-02T06:21:57.600Z,79
2022-11-02T06:22:32.259Z,79
2022-11-02T06:23:05.606Z,79
2022-11-02T06:23:36.640Z,79
2022-11-02T06:24:08.625Z,79
2022-11-02T06:24:40.135Z,78
2022-11-02T06:25:12.454Z,79
2022-11-02T06:25:35.019Z,79
2022-11-02T06:25:57.486Z,79
2022-11-02T06:26:32.384Z,79
2022-11-02T06:27:05.166Z,79
2022-11-02T06:27:36.525Z,79
2022-11-02T06:28:08.330Z,79
2022-11-02T06:28:40.671Z,79
2022-11-02T06:29:12.302Z,78
2022-11-02T06:29:35.035Z,78
2022-11-02T06:29:57.491Z,78
2022-11-02T06:30:32.576Z,78
2022-11-02T06:31:04.986Z,78
2022-11-02T06:31:36.340Z,78
2022-11-02T06:32:09.069Z,79
2022-11-02T06:32:40.176Z,79
2022-11-02T06:33:12.346Z,79
2022-11-02T06:33:34.907Z,79
2022-11-02T06:33:57.433Z,79
2022-11-02T06:34:32.485Z,79
2022-11-02T06:35:04.447Z,79
2022-11-02T06:35:36.327Z,79
2022-11-02T06:36:09.746Z,79
2022-11-02T06:36:40.389Z,79
2022-11-02T06:37:12.173Z,79
2022-11-02T06:37:34.843Z,80
2022-11-02T06:37:58.013Z,80
2022-11-02T06:38:32.359Z,80
2022-11-02T06:39:04.735Z,80
2022-11-02T06:40:08.882Z,80
2022-11-02T06:40:40.324Z,80
2022-11-02T06:41:13.345Z,80
2022-11-02T06:41:36.199Z,80
2022-11-02T06:42:00.214Z,80
2022-11-02T06:42:36.907Z,80
2022-11-02T06:43:17.006Z,80
2022-11-02T06:43:37.483Z,80
2022-11-02T06:44:09.822Z,80
2022-11-02T06:44:41.898Z,80
2022-11-02T06:45:12.742Z,80
2022-11-02T06:45:34.963Z,80
2022-11-02T06:45:57.584Z,80
2022-11-02T06:46:32.475Z,80
2022-11-02T06:47:05.016Z,80
2022-11-02T06:47:36.439Z,80
2022-11-02T06:48:09.309Z,80
2022-11-02T06:48:40.540Z,80
2022-11-02T06:49:13.297Z,80
2022-11-02T06:49:36.020Z,80
2022-11-02T06:49:58.933Z,80
2022-11-02T06:50:34.754Z,80
2022-11-02T06:51:04.558Z,80
2022-11-02T06:51:37.681Z,80
2022-11-02T06:52:08.604Z,80
2022-11-02T06:52:40.995Z,80
2022-11-02T06:53:12.519Z,80
2022-11-02T06:53:35.249Z,80
2022-11-02T06:53:57.977Z,80
2022-11-02T06:54:32.359Z,80
2022-11-02T06:55:04.456Z,80
2022-11-02T06:55:36.683Z,80
2022-11-02T06:56:08.477Z,80
2022-11-02T06:56:40.815Z,80
2022-11-02T06:57:13.159Z,80
2022-11-02T06:57:37.213Z,80
2022-11-02T06:57:58.092Z,80
2022-11-02T06:58:32.796Z,80
2022-11-02T06:59:04.205Z,80
2022-11-02T06:59:36.219Z,80
2022-11-02T07:00:40.384Z,80
2022-11-02T07:01:13.034Z,80
2022-11-02T07:01:35.396Z,80
2022-11-02T07:01:58.245Z,80
2022-11-02T07:02:32.646Z,80
2022-11-02T07:03:05.409Z,80
2022-11-02T07:03:36.290Z,80
2022-11-02T07:04:08.214Z,80
2022-11-02T07:04:40.105Z,80
2022-11-02T07:05:12.265Z,80
2022-11-02T07:05:37.449Z,80
2022-11-02T07:05:57.483Z,79
2022-11-02T07:06:32.279Z,79
2022-11-02T07:07:04.669Z,79
2022-11-02T07:07:40.262Z,79
2022-11-02T07:08:02.599Z,79
2022-11-02T07:08:40.500Z,79